createdAt,value
2022-09-20T01:53:43.207Z,1.30
2022-09-20T01:56:28.300Z,1.30
2022-09-20T01:59:12.875Z,1.47
2022-09-20T02:01:53.328Z,1.23
2022-09-20T02:04:31.585Z,1.60
2022-09-20T02:07:16.574Z,1.60
2022-09-20T02:09:46.060Z,1.60
2022-09-20T02:12:21.617Z,1.20
2022-09-20T02:15:00.418Z,1.60
2022-09-20T02:17:32.945Z,1.30
2022-09-20T02:20:17.753Z,1.50
2022-09-20T02:23:03.121Z,1.33
2022-09-20T02:25:41.830Z,1.67
2022-09-20T02:28:29.953Z,1.33
2022-09-20T02:30:56.608Z,1.60
2022-09-20T02:33:41.406Z,1.40
2022-09-20T02:36:22.881Z,1.50
2022-09-20T02:38:49.329Z,1.13
2022-09-20T02:41:34.593Z,1.57
2022-09-20T02:44:00.986Z,1.60
2022-09-20T02:46:33.308Z,1.40
2022-09-20T02:49:07.480Z,1.27
2022-09-20T02:51:40.554Z,1.27
2022-09-20T02:54:42.369Z,1.10
2022-09-20T02:57:33.771Z,1.37
2022-09-20T03:00:03.180Z,1.23
2022-09-20T03:02:51.375Z,1.70
2022-09-20T03:05:30.697Z,1.57
2022-09-20T03:08:09.482Z,1.20
2022-09-20T03:10:43.568Z,1.37
2022-09-20T03:13:28.634Z,1.10
2022-09-20T03:16:01.808Z,1.10
2022-09-20T03:18:46.712Z,1.40
2022-09-20T03:21:22.844Z,1.00
2022-09-20T03:24:08.043Z,1.10
2022-09-20T03:26:37.466Z,1.20
2022-09-20T03:29:36.550Z,1.10
2022-09-20T03:32:21.790Z,1.30
2022-09-20T03:35:19.003Z,0.80
2022-09-20T03:38:08.773Z,1.60
2022-09-20T03:40:53.745Z,1.20
2022-09-20T03:43:35.513Z,1.40
2022-09-20T03:46:16.661Z,1.10
2022-09-20T03:48:58.391Z,1.10
2022-09-20T03:51:24.782Z,0.93
2022-09-20T03:53:51.548Z,1.30
2022-09-20T03:56:21.203Z,1.10
2022-09-20T03:58:55.024Z,1.30
2022-09-20T04:01:28.078Z,1.20
2022-09-20T04:04:07.423Z,1.20
2022-09-20T04:06:52.515Z,1.30
2022-09-20T04:09:22.073Z,1.50
2022-09-20T04:12:07.512Z,1.20
2022-09-20T04:14:37.190Z,1.30
2022-09-20T04:17:22.332Z,1.63
2022-09-20T04:19:52.148Z,1.27
2022-09-20T04:22:20.944Z,1.47
2022-09-20T04:24:53.429Z,1.50
2022-09-20T04:27:22.986Z,1.20
2022-09-20T04:29:53.216Z,1.50
2022-09-20T04:32:25.863Z,1.37
2022-09-20T04:35:24.079Z,1.40
2022-09-20T04:37:51.786Z,1.30
2022-09-20T04:40:36.715Z,1.27
2022-09-20T04:43:21.827Z,1.43
2022-09-20T04:45:54.511Z,1.50
2022-09-20T04:48:26.875Z,1.33
2022-09-20T04:50:53.276Z,1.50
2022-09-20T04:53:38.408Z,1.30
2022-09-20T04:56:20.935Z,1.40
2022-09-20T04:59:05.995Z,1.43
2022-09-20T05:01:50.568Z,1.30
2022-09-20T05:04:36.922Z,1.50
2022-09-20T05:07:33.174Z,1.27
2022-09-20T05:09:59.777Z,1.40
2022-09-20T05:12:38.113Z,1.37
2022-09-20T05:15:11.244Z,1.50
2022-09-20T05:17:46.623Z,0.97
2022-09-20T05:20:22.285Z,1.50
2022-09-20T05:23:02.830Z,1.37
2022-09-20T05:25:32.309Z,1.30
2022-09-20T05:28:02.996Z,1.27
2022-09-20T05:30:54.173Z,1.40
2022-09-20T05:33:29.869Z,1.10
2022-09-20T05:36:05.633Z,1.10
2022-09-20T05:38:34.948Z,1.20
2022-09-20T05:41:01.344Z,1.30
2022-09-20T05:43:30.649Z,1.10
2022-09-20T05:46:25.617Z,1.44
2022-09-20T05:49:10.922Z,1.43
2022-09-20T05:51:40.429Z,1.20
2022-09-20T05:54:12.979Z,1.10
2022-09-20T05:56:45.870Z,0.93
2022-09-20T05:59:15.863Z,0.90
2022-09-20T06:01:57.578Z,1.50
2022-09-20T06:04:26.936Z,0.90
2022-09-20T06:07:12.128Z,1.17
2022-09-20T06:09:57.317Z,1.10
2022-09-20T06:12:29.931Z,1.10
2022-09-20T06:15:15.794Z,1.20
2022-09-20T06:17:52.675Z,1.20
2022-09-20T06:20:34.425Z,0.80
2022-09-20T06:23:03.367Z,0.80
2022-09-20T06:25:51.064Z,1.10
2022-09-20T06:28:18.836Z,1.07
2022-09-20T06:30:47.922Z,1.13
2022-09-20T06:33:21.767Z,1.00
2022-09-20T06:36:28.520Z,1.00
2022-09-20T06:39:19.372Z,1.10
2022-09-20T06:41:46.162Z,0.80
2022-09-20T06:44:12.572Z,0.80
2022-09-20T06:46:41.890Z,0.73
2022-09-20T06:49:09.614Z,0.80
2022-09-20T06:51:37.517Z,0.97
2022-09-20T06:54:04.948Z,0.97
2022-09-20T06:56:34.288Z,0.60
2022-09-20T06:59:01.143Z,0.80
2022-09-20T07:01:30.545Z,0.67
2022-09-20T07:03:57.769Z,0.80
2022-09-20T07:06:24.186Z,0.73
2022-09-20T07:08:56.461Z,0.72
2022-09-20T07:11:23.354Z,0.67
2022-09-20T07:13:50.796Z,0.80
2022-09-20T07:16:17.269Z,0.73
2022-09-20T07:18:43.949Z,0.80
2022-09-20T07:21:14.470Z,0.80
2022-09-20T07:23:40.967Z,0.53
2022-09-20T07:26:07.782Z,0.70
2022-09-20T07:28:34.987Z,0.70
2022-09-20T07:31:01.807Z,0.90
2022-09-20T07:33:28.251Z,0.80
2022-09-20T07:35:55.359Z,0.90
2022-09-20T07:38:22.258Z,0.80
2022-09-20T07:40:56.066Z,0.53
2022-09-20T07:43:22.843Z,0.70
2022-09-20T07:45:56.029Z,0.70
2022-09-20T07:48:25.912Z,0.70
2022-09-20T07:50:56.811Z,0.90
2022-09-20T07:53:23.729Z,0.80
2022-09-20T07:56:16.615Z,0.90
2022-09-20T07:58:47.437Z,1.00
2022-09-20T08:01:18.040Z,0.70
2022-09-20T08:03:46.130Z,0.70
2022-09-20T08:06:16.083Z,0.70
2022-09-20T08:08:42.995Z,0.80
2022-09-20T08:11:11.013Z,0.80
2022-09-20T08:16:32.106Z,0.53
2022-09-20T08:19:00.035Z,0.70
2022-09-20T08:21:28.278Z,0.63
2022-09-20T08:23:54.771Z,0.70
2022-09-20T08:26:23.543Z,0.50
2022-09-20T08:28:59.652Z,0.80
2022-09-20T08:31:27.190Z,0.40
2022-09-20T08:33:54.621Z,0.80
2022-09-20T08:36:25.064Z,0.56
2022-09-20T08:41:55.689Z,0.60
2022-09-20T08:44:27.899Z,0.43
2022-09-20T08:47:02.698Z,0.65
2022-09-20T08:51:58.139Z,0.60
2022-09-20T08:54:32.094Z,0.70
2022-09-20T08:57:05.215Z,0.70
2022-09-20T08:59:32.347Z,0.73
2022-09-20T09:01:59.951Z,0.70
2022-09-20T09:04:31.798Z,0.53
2022-09-20T09:06:58.400Z,0.70
2022-09-20T09:09:26.496Z,0.60
2022-09-20T09:11:53.976Z,0.60
2022-09-20T09:14:49.548Z,0.53
2022-09-20T09:17:17.700Z,0.67
2022-09-20T09:19:51.708Z,0.70
2022-09-20T09:22:22.697Z,0.63
2022-09-20T09:25:09.438Z,0.53
2022-09-20T09:27:36.662Z,0.57
2022-09-20T09:30:18.811Z,0.50
2022-09-20T09:32:45.277Z,0.40
2022-09-20T09:35:30.780Z,0.40
2022-09-20T09:38:00.777Z,0.80
2022-09-20T09:40:28.719Z,0.70
2022-09-20T09:42:59.301Z,0.60
2022-09-20T09:45:28.342Z,0.50
2022-09-20T09:47:55.819Z,0.57
2022-09-20T09:50:24.182Z,0.40
2022-09-20T09:53:01.259Z,0.60
2022-09-20T09:55:49.138Z,0.32
2022-09-20T09:58:22.763Z,0.53
2022-09-20T10:00:50.580Z,0.60
2022-09-20T10:03:32.140Z,0.50
2022-09-20T10:06:01.885Z,0.57
2022-09-20T10:08:46.987Z,0.57
2022-09-20T10:11:33.575Z,0.70
2022-09-20T10:14:18.664Z,0.43
2022-09-20T10:16:57.323Z,0.60
2022-09-20T10:19:42.700Z,0.50
2022-09-20T10:22:29.131Z,0.60
2022-09-20T10:25:18.049Z,0.60
2022-09-20T10:27:44.487Z,0.60
2022-09-20T10:30:14.135Z,0.50
2022-09-20T10:33:01.077Z,0.57
2022-09-20T10:35:33.905Z,0.50
2022-09-20T10:38:12.997Z,0.40
2022-09-20T10:41:04.100Z,0.50
2022-09-20T10:43:49.042Z,0.63
2022-09-20T10:46:32.267Z,0.60
2022-09-20T10:49:20.671Z,0.57
2022-09-20T10:51:47.192Z,0.70
2022-09-20T10:54:25.365Z,0.70
2022-09-20T10:56:56.308Z,0.83
2022-09-20T10:59:58.221Z,0.57
2022-09-20T11:02:36.227Z,0.50
2022-09-20T11:05:18.697Z,0.50
2022-09-20T11:07:54.745Z,0.50
2022-09-20T11:10:24.311Z,0.60
2022-09-20T11:13:01.800Z,0.50
2022-09-20T11:15:31.567Z,0.70
2022-09-20T11:18:12.905Z,0.70
2022-09-20T11:20:45.201Z,0.47
2022-09-20T11:23:25.318Z,0.30
2022-09-20T11:25:54.118Z,0.60
2022-09-20T11:28:32.769Z,0.50
2022-09-20T11:31:14.475Z,0.70
2022-09-20T11:34:04.219Z,0.60
2022-09-20T11:36:34.583Z,0.60
2022-09-20T11:39:05.382Z,0.53
2022-09-20T11:41:32.260Z,0.67
2022-09-20T11:44:11.327Z,0.60
2022-09-20T11:46:47.869Z,0.60
2022-09-20T11:49:17.533Z,0.50
2022-09-20T11:51:45.438Z,0.60
2022-09-20T11:54:20.992Z,0.60
2022-09-20T11:56:52.048Z,0.60
2022-09-20T11:59:25.916Z,0.60
2022-09-20T12:01:55.057Z,0.47
2022-09-20T12:04:39.017Z,0.50
2022-09-20T12:07:11.331Z,0.70
2022-09-20T12:09:41.957Z,0.50
2022-09-20T12:12:28.294Z,0.60
2022-09-20T12:14:56.041Z,0.77
2022-09-20T12:17:41.020Z,0.40
2022-09-20T12:20:30.974Z,0.70
2022-09-20T12:23:15.940Z,0.47
2022-09-20T12:26:00.498Z,0.70
2022-09-20T12:28:37.740Z,0.53
2022-09-20T12:31:19.716Z,0.70
2022-09-20T12:33:59.739Z,0.60
2022-09-20T12:36:26.955Z,0.50
2022-09-20T12:39:05.294Z,0.40
2022-09-20T12:41:50.447Z,0.70
2022-09-20T12:44:23.090Z,0.40
2022-09-20T12:46:55.045Z,0.50
2022-09-20T12:49:45.135Z,0.50
2022-09-20T12:53:04.275Z,0.60
2022-09-20T12:55:38.555Z,0.50
2022-09-20T12:58:08.216Z,0.50
2022-09-20T13:01:00.743Z,0.43
2022-09-20T13:03:34.834Z,0.60
2022-09-20T13:06:07.400Z,0.47
2022-09-20T13:08:48.000Z,0.60
2022-09-20T13:11:22.814Z,0.53
2022-09-20T13:13:50.457Z,0.30
2022-09-20T13:16:22.259Z,0.47
2022-09-20T13:18:55.219Z,0.50
2022-09-20T13:21:23.338Z,0.50
2022-09-20T13:23:51.057Z,0.50
2022-09-20T13:26:21.052Z,0.60
2022-09-20T13:28:51.308Z,0.60
2022-09-20T13:31:22.550Z,0.60
2022-09-20T13:33:49.165Z,0.60
2022-09-20T13:36:19.521Z,0.63
2022-09-20T13:38:48.381Z,0.40
2022-09-20T13:41:15.963Z,0.47
2022-09-20T13:43:43.543Z,0.70
2022-09-20T13:46:35.887Z,0.70
2022-09-20T13:49:11.413Z,0.40
2022-09-20T13:51:37.855Z,0.40
2022-09-20T13:54:19.363Z,0.51
2022-09-20T13:56:45.883Z,0.50
2022-09-20T13:59:19.219Z,0.50
2022-09-20T14:01:55.828Z,0.40
2022-09-20T14:04:23.847Z,0.57
2022-09-20T14:06:52.091Z,0.40
2022-09-20T14:09:20.903Z,0.60
2022-09-20T14:11:47.407Z,0.50
2022-09-20T14:14:16.531Z,0.80
2022-09-20T14:16:46.950Z,0.50
2022-09-20T14:19:15.606Z,0.60
2022-09-20T14:21:42.361Z,0.80
2022-09-20T14:24:31.917Z,0.70
2022-09-20T14:27:03.376Z,0.47
2022-09-20T14:29:36.813Z,0.40
2022-09-20T14:32:10.125Z,0.70
2022-09-20T14:34:40.551Z,0.47
2022-09-20T14:37:11.979Z,0.50
2022-09-20T14:39:46.339Z,0.60
2022-09-20T14:42:20.716Z,0.50
2022-09-20T14:44:50.117Z,0.90
2022-09-20T14:47:16.742Z,0.70
2022-09-20T14:49:44.107Z,0.90
2022-09-20T14:52:25.502Z,0.60
2022-09-20T14:54:59.073Z,0.70
2022-09-20T14:57:26.512Z,0.57
2022-09-20T14:59:54.997Z,0.70
2022-09-20T15:02:21.532Z,0.60
2022-09-20T15:04:55.835Z,0.60
2022-09-20T15:07:22.383Z,0.60
2022-09-20T15:09:48.921Z,0.60
2022-09-20T15:12:17.184Z,0.60
2022-09-20T15:14:43.912Z,0.50
2022-09-20T15:17:13.807Z,0.37
2022-09-20T15:19:40.252Z,0.60
2022-09-20T15:22:08.481Z,0.60
2022-09-20T15:24:34.919Z,0.70
2022-09-20T15:27:01.543Z,0.60
2022-09-20T15:29:28.024Z,0.90
2022-09-20T15:32:11.109Z,0.50
2022-09-20T15:34:37.967Z,0.73
2022-09-20T15:37:04.913Z,0.70
2022-09-20T15:39:31.335Z,0.70
2022-09-20T15:41:57.816Z,0.80
2022-09-20T15:44:24.249Z,0.73
2022-09-20T15:46:51.283Z,0.80
2022-09-20T15:49:17.709Z,0.97
2022-09-20T15:51:44.152Z,0.73
2022-09-20T15:54:12.823Z,0.63
2022-09-20T15:56:41.913Z,1.00
2022-09-20T15:59:09.584Z,0.90
2022-09-20T16:01:45.660Z,0.80
2022-09-20T16:04:12.455Z,0.70
2022-09-20T16:06:39.796Z,0.80
2022-09-20T16:09:07.546Z,0.93
2022-09-20T16:11:34.256Z,1.00
2022-09-20T16:14:00.929Z,1.20
2022-09-20T16:16:28.297Z,0.90
2022-09-20T16:19:13.361Z,1.33
2022-09-20T16:21:40.681Z,1.67
2022-09-20T16:24:07.581Z,1.20
2022-09-20T16:26:34.584Z,1.53
2022-09-20T16:29:01.177Z,1.20
2022-09-20T16:31:30.928Z,0.77
2022-09-20T16:33:57.507Z,1.10
2022-09-20T16:36:27.657Z,1.73
2022-09-20T16:38:55.352Z,0.90
2022-09-20T16:41:23.373Z,0.97
2022-09-20T16:43:52.293Z,1.37
2022-09-20T16:46:22.128Z,0.90
2022-09-20T16:48:54.275Z,2.10
2022-09-20T16:51:25.999Z,1.53
2022-09-20T16:53:54.642Z,2.50
2022-09-20T16:56:25.979Z,2.63
2022-09-20T16:58:52.869Z,1.70
2022-09-20T17:01:19.468Z,1.90
2022-09-20T17:03:47.126Z,2.33
2022-09-20T17:06:14.508Z,2.27
2022-09-20T17:08:41.552Z,1.73
2022-09-20T17:11:09.363Z,1.75
2022-09-20T17:13:38.098Z,2.00
2022-09-20T17:16:06.528Z,1.50
2022-09-20T17:18:36.250Z,1.00
2022-09-20T17:21:03.893Z,1.00
2022-09-20T17:23:33.009Z,0.80
2022-09-20T17:26:06.971Z,0.80
2022-09-20T17:28:37.596Z,0.90
2022-09-20T17:31:04.899Z,0.90
2022-09-20T17:33:33.398Z,0.93
2022-09-20T17:36:05.995Z,0.83
2022-09-20T17:38:33.668Z,0.83
2022-09-20T17:41:06.468Z,0.50
2022-09-20T17:43:35.309Z,0.70
2022-09-20T17:46:06.181Z,0.70
2022-09-20T17:48:34.358Z,0.80
2022-09-20T17:51:02.122Z,1.10
2022-09-20T17:53:30.201Z,0.80
2022-09-20T17:55:57.134Z,0.80
2022-09-20T17:58:24.047Z,0.80
2022-09-20T18:00:50.552Z,0.93
2022-09-20T18:03:17.797Z,0.90
2022-09-20T18:05:44.275Z,0.83
2022-09-20T18:08:10.730Z,0.80
2022-09-20T18:10:38.000Z,0.60
2022-09-20T18:13:04.873Z,1.20
2022-09-20T18:15:32.204Z,0.73
2022-09-20T18:17:59.269Z,0.67
2022-09-20T18:20:25.731Z,0.87
2022-09-20T18:22:52.783Z,1.63
2022-09-20T18:25:19.555Z,0.70
2022-09-20T18:27:46.189Z,1.00
2022-09-20T18:30:12.707Z,1.13
2022-09-20T18:32:39.987Z,0.90
2022-09-20T18:35:06.548Z,0.77
2022-09-20T18:37:35.663Z,1.00
2022-09-20T18:40:02.432Z,0.97
2022-09-20T18:42:30.996Z,1.00
2022-09-20T18:44:58.599Z,0.97
2022-09-20T18:47:25.149Z,0.67
2022-09-20T18:49:51.581Z,0.80
2022-09-20T18:52:24.580Z,0.80
2022-09-20T18:54:51.055Z,1.07
2022-09-20T18:57:17.731Z,0.80
2022-09-20T18:59:53.600Z,0.67
2022-09-20T19:02:46.308Z,0.90
2022-09-20T19:05:17.910Z,0.90
2022-09-20T19:07:53.439Z,0.77
2022-09-20T19:10:29.939Z,0.73
2022-09-20T19:12:59.195Z,0.73
2022-09-20T19:15:34.891Z,1.10
2022-09-20T19:18:04.177Z,0.90
2022-09-20T19:20:34.954Z,0.83
2022-09-20T19:23:04.876Z,1.10
2022-09-20T19:25:39.347Z,0.73
2022-09-20T19:28:05.886Z,0.93
2022-09-20T19:30:32.610Z,1.10
2022-09-20T19:32:59.152Z,0.90
2022-09-20T19:35:28.673Z,1.30
2022-09-20T19:38:15.425Z,1.10
2022-09-20T19:40:50.002Z,0.93
2022-09-20T19:43:35.832Z,1.20
2022-09-20T19:46:13.559Z,1.00
2022-09-20T19:48:43.701Z,0.80
2022-09-20T19:51:11.116Z,0.93
2022-09-20T19:53:37.730Z,1.10
2022-09-20T19:56:33.578Z,0.93
2022-09-20T19:59:00.176Z,1.33
2022-09-20T20:01:27.115Z,1.27
2022-09-20T20:03:54.013Z,1.00
2022-09-20T20:06:28.867Z,1.10
2022-09-20T20:08:59.067Z,1.00
2022-09-20T20:11:34.741Z,1.10
2022-09-20T20:14:17.115Z,0.80
2022-09-20T20:16:53.381Z,0.90
2022-09-20T20:19:25.813Z,0.97
2022-09-20T20:46:20.868Z,1.50
2022-09-20T20:48:47.872Z,1.35
